createdAt,value
2022-12-12T00:00:32.257Z,41.88
2022-12-12T00:01:38.009Z,45.08
2022-12-12T00:02:42.302Z,44.97
2022-12-12T00:03:44.667Z,44.63
2022-12-12T00:04:47.836Z,44.17
2022-12-12T00:05:54.087Z,42.13
2022-12-12T00:06:57.135Z,47.22
2022-12-12T00:07:59.293Z,41.97
2022-12-12T00:09:04.511Z,42.17
2022-12-12T00:10:08.251Z,42.03
2022-12-12T00:11:11.755Z,45.42
2022-12-12T00:12:14.840Z,44.45
2022-12-12T00:13:16.976Z,42.58
2022-12-12T00:14:20.053Z,45.38
2022-12-12T00:15:22.122Z,43.70
2022-12-12T00:16:26.373Z,43.53
2022-12-12T00:17:28.473Z,44.80
2022-12-12T00:18:31.541Z,45.33
2022-12-12T00:19:33.574Z,44.25
2022-12-12T00:20:36.839Z,44.63
2022-12-12T00:21:39.076Z,41.38
2022-12-12T00:22:42.231Z,46.22
2022-12-12T00:23:44.696Z,46.10
2022-12-12T00:24:49.380Z,45.78
2022-12-12T00:25:56.060Z,43.65
2022-12-12T00:26:59.112Z,46.80
2022-12-12T00:28:02.542Z,48.67
2022-12-12T00:29:06.240Z,48.85
2022-12-12T00:30:09.400Z,43.42
2022-12-12T00:31:12.734Z,44.58
2022-12-12T00:32:15.890Z,42.55
2022-12-12T00:33:18.269Z,45.10
2022-12-12T00:34:21.246Z,45.00
2022-12-12T00:35:24.231Z,45.90
2022-12-12T00:36:29.532Z,43.53
2022-12-12T00:37:31.559Z,46.55
2022-12-12T00:38:34.871Z,42.90
2022-12-12T00:39:37.958Z,43.20
2022-12-12T00:40:44.050Z,44.97
2022-12-12T00:41:47.440Z,43.85
2022-12-12T00:42:49.543Z,42.95
2022-12-12T00:43:53.069Z,47.47
2022-12-12T00:44:55.093Z,45.67
2022-12-12T00:46:00.031Z,46.20
2022-12-12T00:47:02.921Z,42.17
2022-12-12T00:48:07.088Z,40.92
2022-12-12T00:49:09.213Z,44.38
2022-12-12T00:50:12.212Z,47.17
2022-12-12T00:51:18.322Z,42.22
2022-12-12T00:52:21.382Z,44.53
2022-12-12T00:53:23.708Z,43.10
2022-12-12T00:54:26.774Z,43.05
2022-12-12T00:55:29.025Z,46.25
2022-12-12T00:56:33.575Z,45.20
2022-12-12T00:57:35.864Z,46.20
2022-12-12T00:58:38.836Z,44.65
2022-12-12T00:59:40.853Z,46.30
2022-12-12T01:00:43.868Z,43.85
2022-12-12T01:01:46.878Z,42.97
2022-12-12T01:02:50.262Z,43.90
2022-12-12T01:03:53.887Z,39.70
2022-12-12T01:04:56.910Z,46.55
2022-12-12T01:05:59.065Z,42.97
2022-12-12T01:07:02.357Z,43.80
2022-12-12T01:08:04.647Z,42.50
2022-12-12T01:09:07.719Z,43.78
2022-12-12T01:10:10.493Z,40.70
2022-12-12T01:11:15.005Z,41.28
2022-12-12T01:12:19.438Z,40.22
2022-12-12T01:13:21.556Z,38.70
2022-12-12T01:14:24.634Z,39.78
2022-12-12T01:15:26.799Z,41.53
2022-12-12T01:16:30.437Z,40.67
2022-12-12T01:17:37.775Z,45.80
2022-12-12T01:18:41.821Z,40.08
2022-12-12T01:19:44.031Z,38.17
2022-12-12T01:20:47.182Z,42.65
2022-12-12T01:21:50.216Z,40.35
2022-12-12T01:22:53.263Z,38.13
2022-12-12T01:23:56.453Z,43.97
2022-12-12T01:25:00.477Z,43.65
2022-12-12T01:26:04.667Z,40.83
2022-12-12T01:27:06.688Z,41.53
2022-12-12T01:28:11.704Z,42.00
2022-12-12T01:29:13.955Z,43.53
2022-12-12T01:30:19.620Z,41.67
2022-12-12T01:31:22.314Z,43.20
2022-12-12T01:32:25.318Z,39.80
2022-12-12T01:33:28.410Z,41.33
2022-12-12T01:34:30.456Z,39.60
2022-12-12T01:35:34.387Z,41.55
2022-12-12T01:36:36.585Z,37.42
2022-12-12T01:37:41.593Z,41.22
2022-12-12T01:38:45.797Z,43.05
2022-12-12T01:39:47.972Z,46.22
2022-12-12T01:40:51.178Z,44.67
2022-12-12T01:41:53.158Z,41.53
2022-12-12T01:42:56.250Z,39.35
2022-12-12T01:44:02.652Z,42.22
2022-12-12T01:45:06.490Z,41.58
2022-12-12T01:46:38.897Z,40.55
2022-12-12T01:47:41.987Z,40.22
2022-12-12T01:48:49.451Z,45.10
2022-12-12T01:49:56.725Z,39.28
2022-12-12T01:51:01.130Z,40.50
2022-12-12T01:52:08.446Z,40.38
2022-12-12T01:53:11.285Z,39.05
2022-12-12T01:54:18.147Z,43.05
2022-12-12T01:55:23.943Z,43.83
2022-12-12T01:56:26.306Z,46.55
2022-12-12T01:57:33.449Z,46.40
2022-12-12T01:58:35.543Z,46.95
2022-12-12T01:59:40.988Z,41.20
2022-12-12T02:00:43.685Z,44.05
2022-12-12T02:01:47.210Z,44.58
2022-12-12T02:02:50.716Z,42.65
2022-12-12T02:03:53.258Z,44.78
2022-12-12T02:04:56.868Z,46.08
2022-12-12T02:06:02.925Z,45.28
2022-12-12T02:07:06.406Z,44.72
2022-12-12T02:08:10.520Z,46.25
2022-12-12T02:09:16.890Z,44.20
2022-12-12T02:10:19.130Z,43.92
2022-12-12T02:11:22.162Z,46.88
2022-12-12T02:12:25.198Z,44.78
2022-12-12T02:13:31.654Z,48.35
2022-12-12T02:14:37.919Z,48.00
2022-12-12T02:15:44.587Z,44.78
2022-12-12T02:17:02.612Z,44.63
2022-12-12T02:18:12.493Z,44.47
2022-12-12T02:19:37.623Z,46.28
2022-12-12T02:21:12.201Z,43.65
2022-12-12T02:22:25.115Z,47.20
2022-12-12T02:24:06.666Z,42.92
2022-12-12T02:25:31.826Z,46.72
2022-12-12T02:27:10.884Z,47.10
2022-12-12T02:28:34.042Z,43.40
2022-12-12T02:30:18.457Z,42.90
2022-12-12T02:31:27.588Z,42.63
2022-12-12T02:32:43.636Z,49.30
2022-12-12T02:33:56.513Z,47.90
2022-12-12T02:35:06.247Z,45.20
2022-12-12T02:36:16.734Z,34.00
2022-12-12T02:37:30.712Z,47.35
2022-12-12T02:38:43.586Z,53.22
2022-12-12T02:39:56.093Z,47.00
2022-12-12T02:41:12.216Z,46.60
2022-12-12T02:42:21.485Z,47.45
2022-12-12T02:43:33.598Z,45.70
2022-12-12T02:44:42.278Z,48.38
2022-12-12T02:45:49.586Z,47.72
2022-12-12T02:47:01.309Z,49.33
2022-12-12T02:48:12.142Z,43.03
2022-12-12T02:49:21.259Z,44.65
2022-12-12T02:50:26.851Z,51.30
2022-12-12T02:51:30.635Z,48.60
2022-12-12T02:52:33.837Z,51.15
2022-12-12T02:53:35.867Z,50.58
2022-12-12T02:54:39.224Z,51.30
2022-12-12T02:55:41.216Z,50.95
2022-12-12T02:56:48.459Z,47.05
2022-12-12T02:57:52.016Z,49.33
2022-12-12T02:58:55.105Z,51.90
2022-12-12T03:00:00.614Z,47.30
2022-12-12T03:01:17.297Z,49.78
2022-12-12T03:02:47.160Z,50.75
2022-12-12T03:04:13.327Z,51.13
2022-12-12T03:06:00.735Z,48.75
2022-12-12T03:07:29.657Z,50.33
2022-12-12T03:08:47.250Z,55.03
2022-12-12T03:10:02.099Z,52.72
2022-12-12T03:11:09.266Z,54.05
2022-12-12T03:12:18.075Z,54.47
2022-12-12T03:13:32.045Z,52.78
2022-12-12T03:14:47.281Z,54.38
2022-12-12T03:15:57.976Z,53.97
2022-12-12T03:18:21.810Z,55.65
2022-12-12T03:19:29.207Z,47.15
2022-12-12T03:20:39.940Z,51.08
2022-12-12T03:21:47.233Z,53.17
2022-12-12T03:22:55.902Z,49.95
2022-12-12T03:24:05.776Z,49.17
2022-12-12T03:25:15.322Z,47.03
2022-12-12T03:26:24.779Z,44.80
2022-12-12T03:27:33.080Z,45.95
2022-12-12T03:28:39.721Z,48.13
2022-12-12T03:29:47.810Z,50.53
2022-12-12T03:30:55.603Z,46.75
2022-12-12T03:32:05.130Z,50.88
2022-12-12T03:33:16.601Z,47.60
2022-12-12T03:34:24.196Z,46.58
2022-12-12T03:35:30.518Z,46.17
2022-12-12T03:36:38.025Z,46.08
2022-12-12T03:37:46.782Z,46.05
2022-12-12T03:38:57.318Z,44.83
2022-12-12T03:40:03.621Z,49.58
2022-12-12T03:41:09.967Z,48.60
2022-12-12T03:42:20.138Z,45.10
2022-12-12T03:43:26.167Z,40.25
2022-12-12T03:44:39.761Z,49.30
2022-12-12T03:45:52.502Z,52.03
2022-12-12T03:46:59.260Z,52.95
2022-12-12T03:48:08.268Z,51.17
2022-12-12T03:49:15.929Z,52.53
2022-12-12T03:50:22.543Z,50.33
2022-12-12T03:51:29.255Z,50.38
2022-12-12T03:52:35.911Z,52.67
2022-12-12T03:53:44.798Z,51.92
2022-12-12T03:54:52.990Z,54.33
2022-12-12T03:55:58.104Z,51.53
2022-12-12T03:57:06.395Z,54.78
2022-12-12T03:58:14.807Z,49.30
2022-12-12T03:59:24.055Z,50.38
2022-12-12T04:00:33.738Z,52.15
2022-12-12T04:01:44.413Z,51.67
2022-12-12T04:02:52.940Z,53.97
2022-12-12T04:04:03.165Z,52.03
2022-12-12T04:05:15.963Z,51.88
2022-12-12T04:06:27.447Z,50.28
2022-12-12T04:07:34.519Z,52.65
2022-12-12T04:08:38.055Z,55.15
2022-12-12T04:09:59.444Z,54.90
2022-12-12T04:11:25.991Z,52.10
2022-12-12T04:12:56.363Z,55.42
2022-12-12T04:14:09.089Z,53.00
2022-12-12T04:15:22.351Z,48.70
2022-12-12T04:16:29.017Z,50.28
2022-12-12T04:17:37.867Z,53.97
2022-12-12T04:18:50.163Z,52.90
2022-12-12T04:20:16.879Z,50.83
2022-12-12T04:21:51.846Z,52.15
2022-12-12T04:23:16.754Z,49.33
2022-12-12T04:24:26.201Z,50.72
2022-12-12T04:25:56.634Z,52.95
2022-12-12T04:27:05.994Z,44.55
2022-12-12T04:28:08.193Z,52.30
2022-12-12T04:29:20.847Z,54.13
2022-12-12T04:30:24.826Z,49.22
2022-12-12T04:31:29.206Z,48.92
2022-12-12T04:32:37.156Z,55.13
2022-12-12T04:33:44.164Z,53.15
2022-12-12T04:34:52.321Z,48.72
2022-12-12T04:35:57.748Z,49.53
2022-12-12T04:37:04.032Z,50.65
2022-12-12T04:38:10.567Z,46.97
2022-12-12T04:39:17.966Z,50.65
2022-12-12T04:40:26.221Z,50.65
2022-12-12T04:41:31.174Z,51.17
2022-12-12T04:42:38.898Z,44.72
2022-12-12T04:43:43.584Z,46.20
2022-12-12T04:44:48.410Z,51.33
2022-12-12T04:45:54.878Z,50.75
2022-12-12T04:47:01.717Z,49.47
2022-12-12T04:48:06.921Z,46.25
2022-12-12T04:49:16.483Z,53.45
2022-12-12T04:50:21.068Z,49.35
2022-12-12T04:51:29.104Z,51.13
2022-12-12T04:52:35.317Z,51.75
2022-12-12T04:53:43.267Z,48.53
2022-12-12T04:54:50.626Z,51.72
2022-12-12T04:55:57.164Z,49.70
2022-12-12T04:57:03.315Z,51.00
2022-12-12T04:58:07.315Z,49.00
2022-12-12T04:59:10.583Z,53.47
2022-12-12T05:00:15.246Z,45.75
2022-12-12T05:01:23.342Z,51.85
2022-12-12T05:02:34.291Z,47.78
2022-12-12T05:03:44.028Z,50.17
2022-12-12T05:04:54.617Z,53.70
2022-12-12T05:06:00.390Z,51.47
2022-12-12T05:07:08.449Z,48.47
2022-12-12T05:08:17.202Z,46.03
2022-12-12T05:09:21.295Z,45.00
2022-12-12T05:10:24.448Z,47.92
2022-12-12T05:11:26.621Z,47.53
2022-12-12T05:12:29.628Z,47.90
2022-12-12T05:13:33.811Z,47.40
2022-12-12T05:14:36.827Z,51.47
2022-12-12T05:15:44.727Z,54.17
2022-12-12T05:16:51.138Z,54.83
2022-12-12T05:18:00.073Z,51.92
2022-12-12T05:19:02.249Z,49.42
2022-12-12T05:20:06.045Z,53.55
2022-12-12T05:21:08.052Z,52.22
2022-12-12T05:22:11.094Z,49.60
2022-12-12T05:23:14.796Z,46.28
2022-12-12T05:24:17.850Z,50.00
2022-12-12T05:25:20.430Z,49.83
2022-12-12T05:26:27.033Z,45.53
2022-12-12T05:27:29.093Z,49.75
2022-12-12T05:28:32.121Z,51.35
2022-12-12T05:29:35.200Z,49.17
2022-12-12T05:30:37.410Z,52.90
2022-12-12T05:31:40.499Z,47.80
2022-12-12T05:32:42.635Z,47.28
2022-12-12T05:33:46.411Z,45.35
2022-12-12T05:34:48.530Z,50.80
2022-12-12T05:35:51.590Z,49.05
2022-12-12T05:36:54.677Z,51.80
2022-12-12T05:37:57.719Z,50.38
2022-12-12T05:39:01.122Z,49.25
2022-12-12T05:40:04.860Z,49.13
2022-12-12T05:41:06.927Z,50.38
2022-12-12T05:42:09.961Z,53.95
2022-12-12T05:43:12.050Z,51.25
2022-12-12T05:44:15.062Z,49.42
2022-12-12T05:45:17.122Z,48.45
2022-12-12T05:46:20.215Z,51.10
2022-12-12T05:47:22.245Z,51.03
2022-12-12T05:48:25.280Z,50.95
2022-12-12T05:49:27.398Z,50.45
2022-12-12T05:50:30.389Z,50.13
2022-12-12T05:51:32.373Z,47.67
2022-12-12T05:52:36.809Z,52.60
2022-12-12T05:53:42.823Z,53.80
2022-12-12T05:54:47.793Z,51.63
2022-12-12T05:55:50.759Z,52.17
2022-12-12T05:56:53.776Z,48.65
2022-12-12T05:57:55.768Z,48.75
2022-12-12T05:58:58.896Z,49.90
2022-12-12T06:00:01.038Z,53.00
2022-12-12T06:01:05.625Z,51.70
2022-12-12T06:02:07.744Z,53.17
2022-12-12T06:03:10.852Z,52.33
2022-12-12T06:04:13.893Z,49.25
2022-12-12T06:05:16.220Z,51.35
2022-12-12T06:06:20.106Z,51.55
2022-12-12T06:07:22.160Z,54.00
2022-12-12T06:08:25.419Z,53.78
2022-12-12T06:09:28.855Z,49.95
2022-12-12T06:10:33.375Z,51.25
2022-12-12T06:11:36.437Z,45.75
2022-12-12T06:12:38.595Z,52.25
2022-12-12T06:13:41.620Z,51.28
2022-12-12T06:14:43.631Z,57.47
2022-12-12T06:15:46.669Z,49.53
2022-12-12T06:16:48.758Z,51.20
2022-12-12T06:17:52.385Z,53.88
2022-12-12T06:18:55.554Z,54.63
2022-12-12T06:19:58.613Z,53.97
2022-12-12T06:21:06.202Z,53.92
2022-12-12T06:22:08.265Z,52.75
2022-12-12T06:23:11.281Z,52.95
2022-12-12T06:24:13.537Z,47.88
2022-12-12T06:25:16.563Z,51.33
2022-12-12T06:26:21.451Z,51.47
2022-12-12T06:27:24.507Z,52.40
2022-12-12T06:28:27.524Z,51.67
2022-12-12T06:29:29.691Z,46.97
2022-12-12T06:30:32.788Z,53.35
2022-12-12T06:31:35.810Z,55.55
2022-12-12T06:32:38.849Z,55.38
2022-12-12T06:33:43.397Z,50.38
2022-12-12T06:34:45.441Z,49.30
2022-12-12T06:35:58.941Z,53.40
2022-12-12T06:37:01.929Z,51.40
2022-12-12T06:38:04.939Z,58.80
2022-12-12T06:39:07.430Z,50.88
2022-12-12T06:40:11.829Z,52.90
2022-12-12T06:41:15.861Z,51.92
2022-12-12T06:42:20.310Z,51.45
2022-12-12T06:43:22.494Z,51.63
2022-12-12T06:44:25.500Z,53.22
2022-12-12T06:45:28.527Z,55.78
2022-12-12T06:46:30.912Z,53.08
2022-12-12T06:47:34.017Z,52.42
2022-12-12T06:48:37.439Z,57.83
2022-12-12T06:49:40.548Z,55.60
2022-12-12T06:50:44.108Z,56.13
2022-12-12T06:51:48.887Z,58.08
2022-12-12T06:52:51.955Z,57.00
2022-12-12T06:53:54.240Z,55.42
2022-12-12T06:54:57.239Z,59.95
2022-12-12T06:56:00.374Z,56.78
2022-12-12T06:57:03.417Z,58.55
2022-12-12T06:58:06.834Z,55.67
2022-12-12T06:59:12.094Z,57.45
2022-12-12T07:00:16.353Z,57.25
2022-12-12T07:01:20.470Z,53.97
2022-12-12T07:02:29.608Z,56.75
2022-12-12T07:03:33.182Z,55.25
2022-12-12T07:04:36.187Z,55.80
2022-12-12T07:05:39.215Z,55.22
2022-12-12T07:06:41.571Z,63.60
2022-12-12T07:07:44.632Z,56.38
2022-12-12T07:08:46.866Z,54.72
2022-12-12T07:09:49.907Z,56.97
2022-12-12T07:10:52.001Z,56.78
2022-12-12T07:11:55.094Z,55.60
2022-12-12T07:12:58.421Z,57.00
2022-12-12T07:14:03.802Z,58.17
2022-12-12T07:15:07.552Z,55.75
2022-12-12T07:16:09.755Z,58.30
2022-12-12T07:17:12.871Z,57.25
2022-12-12T07:18:16.845Z,59.20
2022-12-12T07:19:19.924Z,57.00
2022-12-12T07:20:23.080Z,61.95
2022-12-12T07:21:25.696Z,57.45
2022-12-12T07:22:29.125Z,57.92
2022-12-12T07:23:31.297Z,56.53
2022-12-12T07:24:34.333Z,55.05
2022-12-12T07:25:38.565Z,54.70
2022-12-12T07:26:41.617Z,59.00
2022-12-12T07:27:43.786Z,57.00
2022-12-12T07:28:47.276Z,55.10
2022-12-12T07:29:51.861Z,51.72
2022-12-12T07:30:54.136Z,59.88
2022-12-12T07:31:57.415Z,57.42
2022-12-12T07:32:59.444Z,56.00
2022-12-12T07:34:02.476Z,60.97
2022-12-12T07:35:06.093Z,64.93
2022-12-12T07:36:08.615Z,60.88
2022-12-12T07:37:11.680Z,62.85
2022-12-12T07:38:13.703Z,67.95
2022-12-12T07:39:20.649Z,76.55
2022-12-12T07:40:23.425Z,67.30
2022-12-12T07:41:26.495Z,69.78
2022-12-12T07:42:29.546Z,72.22
2022-12-12T07:43:33.224Z,72.82
2022-12-12T07:44:37.094Z,66.90
2022-12-12T07:45:44.255Z,68.22
2022-12-12T07:46:47.252Z,71.40
2022-12-12T07:47:50.312Z,63.20
2022-12-12T07:48:54.690Z,66.00
2022-12-12T07:49:57.708Z,69.45
2022-12-12T07:51:01.166Z,69.03
2022-12-12T07:52:04.911Z,56.88
2022-12-12T07:53:07.667Z,62.78
2022-12-12T07:54:10.675Z,64.72
2022-12-12T07:55:14.035Z,62.72
2022-12-12T07:56:18.771Z,62.65
2022-12-12T07:57:21.832Z,63.17
2022-12-12T07:58:24.879Z,65.57
2022-12-12T07:59:27.020Z,69.05
2022-12-12T08:00:30.067Z,71.65
2022-12-12T08:01:35.025Z,68.60
2022-12-12T08:02:37.082Z,66.60
2022-12-12T08:03:40.341Z,66.65
2022-12-12T08:04:43.402Z,61.80
2022-12-12T08:05:45.477Z,61.10
2022-12-12T08:06:49.985Z,64.03
2022-12-12T08:07:53.749Z,62.03
2022-12-12T08:08:57.051Z,64.53
2022-12-12T08:09:59.050Z,68.28
2022-12-12T08:11:06.520Z,66.57
2022-12-12T08:12:09.585Z,60.95
2022-12-12T08:13:11.970Z,67.97
2022-12-12T08:14:15.135Z,59.42
2022-12-12T08:15:19.185Z,63.60
2022-12-12T08:16:24.412Z,63.63
2022-12-12T08:17:28.949Z,67.35
2022-12-12T08:18:32.115Z,62.88
2022-12-12T08:19:35.679Z,64.22
2022-12-12T08:20:40.912Z,68.40
2022-12-12T08:21:44.611Z,60.08
2022-12-12T08:22:47.619Z,62.83
2022-12-12T08:23:50.612Z,65.50
2022-12-12T08:24:53.608Z,65.97
2022-12-12T08:25:56.524Z,63.08
2022-12-12T08:26:59.635Z,59.65
2022-12-12T08:28:01.757Z,62.88
2022-12-12T08:29:05.337Z,58.30
2022-12-12T08:30:10.170Z,61.60
2022-12-12T08:31:15.793Z,60.78
2022-12-12T08:32:18.826Z,65.18
2022-12-12T08:33:23.219Z,65.82
2022-12-12T08:34:26.419Z,58.00
2022-12-12T08:35:29.554Z,60.83
2022-12-12T08:36:34.909Z,62.55
2022-12-12T08:37:36.897Z,62.00
2022-12-12T08:38:40.042Z,59.60
2022-12-12T08:39:42.030Z,59.90
2022-12-12T08:40:45.762Z,59.30
2022-12-12T08:41:50.939Z,55.75
2022-12-12T08:42:53.994Z,61.42
2022-12-12T08:43:57.022Z,58.85
2022-12-12T08:44:59.012Z,60.47
2022-12-12T08:46:02.415Z,60.65
2022-12-12T08:47:05.747Z,60.60
2022-12-12T08:48:09.834Z,59.53
2022-12-12T08:49:16.276Z,64.25
2022-12-12T08:50:20.209Z,66.50
2022-12-12T08:51:24.278Z,62.08
2022-12-12T08:52:27.379Z,62.85
2022-12-12T08:53:30.833Z,65.93
2022-12-12T08:54:34.085Z,65.60
2022-12-12T08:55:37.330Z,63.47
2022-12-12T08:56:41.081Z,65.07
2022-12-12T08:57:44.323Z,67.93
2022-12-12T08:58:46.736Z,65.15
2022-12-12T08:59:49.780Z,67.95
2022-12-12T09:00:53.120Z,66.70
2022-12-12T09:01:57.195Z,70.30
2022-12-12T09:03:00.632Z,66.43
2022-12-12T09:04:03.967Z,70.53
2022-12-12T09:05:09.280Z,67.47
2022-12-12T09:06:13.027Z,70.63
2022-12-12T09:07:16.117Z,67.30
2022-12-12T09:08:19.356Z,62.53
2022-12-12T09:09:22.678Z,61.40
2022-12-12T09:10:25.738Z,62.22
2022-12-12T09:11:28.831Z,64.03
2022-12-12T09:12:35.610Z,68.95
2022-12-12T09:13:41.470Z,68.78
2022-12-12T09:14:44.476Z,66.47
2022-12-12T09:15:51.592Z,67.55
2022-12-12T09:16:56.794Z,71.63
2022-12-12T09:17:59.826Z,70.07
2022-12-12T09:19:03.178Z,70.10
2022-12-12T09:20:08.595Z,65.10
2022-12-12T09:21:10.608Z,69.13
2022-12-12T09:22:13.707Z,68.25
2022-12-12T09:23:16.814Z,71.03
2022-12-12T09:24:19.795Z,68.00
2022-12-12T09:25:22.863Z,64.13
2022-12-12T09:26:25.879Z,63.55
2022-12-12T09:27:28.148Z,69.80
2022-12-12T09:28:31.165Z,63.67
2022-12-12T09:29:34.232Z,60.97
2022-12-12T09:30:37.285Z,66.80
2022-12-12T09:31:40.446Z,60.08
2022-12-12T09:32:45.332Z,64.28
2022-12-12T09:33:49.027Z,64.30
2022-12-12T09:34:53.212Z,61.58
2022-12-12T09:36:02.027Z,61.92
2022-12-12T09:37:05.151Z,56.22
2022-12-12T09:38:13.965Z,56.08
2022-12-12T09:39:17.737Z,59.05
2022-12-12T09:40:28.640Z,61.58
2022-12-12T09:41:31.842Z,61.28
2022-12-12T09:42:35.628Z,60.35
2022-12-12T09:43:45.236Z,57.70
2022-12-12T09:44:49.461Z,55.85
2022-12-12T09:45:53.071Z,56.22
2022-12-12T09:47:00.580Z,53.45
2022-12-12T09:48:05.753Z,58.22
2022-12-12T09:49:15.261Z,54.70
2022-12-12T09:50:25.584Z,60.67
2022-12-12T09:51:30.175Z,55.00
2022-12-12T09:52:36.108Z,54.80
2022-12-12T09:53:41.248Z,55.45
2022-12-12T09:54:44.645Z,57.10
2022-12-12T09:55:56.041Z,56.65
2022-12-12T09:57:12.207Z,54.83
2022-12-12T09:58:24.616Z,58.10
2022-12-12T09:59:35.057Z,57.72
2022-12-12T10:00:44.606Z,55.92
2022-12-12T10:02:01.229Z,57.35
2022-12-12T10:03:18.074Z,50.70
2022-12-12T10:04:29.514Z,58.10
2022-12-12T10:05:40.891Z,54.95
2022-12-12T10:06:52.188Z,61.40
2022-12-12T10:08:02.777Z,56.83
2022-12-12T10:09:26.982Z,52.13
2022-12-12T10:10:33.686Z,57.05
2022-12-12T10:11:54.829Z,56.03
2022-12-12T10:12:59.344Z,55.78
2022-12-12T10:14:04.999Z,55.80
2022-12-12T10:15:16.304Z,53.60
2022-12-12T10:16:19.504Z,56.90
2022-12-12T10:17:27.678Z,57.10
2022-12-12T10:18:35.417Z,56.95
2022-12-12T10:19:47.332Z,59.95
2022-12-12T10:20:53.310Z,56.30
2022-12-12T10:22:03.348Z,51.63
2022-12-12T10:23:14.392Z,44.83
2022-12-12T10:24:28.433Z,51.42
2022-12-12T10:25:42.657Z,57.53
2022-12-12T10:26:44.885Z,53.95
2022-12-12T10:27:49.723Z,57.13
2022-12-12T10:28:55.426Z,56.65
2022-12-12T10:30:05.814Z,53.25
2022-12-12T10:31:23.984Z,57.90
2022-12-12T10:32:37.348Z,52.92
2022-12-12T10:33:52.352Z,57.83
2022-12-12T10:35:04.300Z,52.50
2022-12-12T10:36:15.144Z,60.33
2022-12-12T10:37:31.232Z,56.88
2022-12-12T10:38:52.148Z,50.28
2022-12-12T10:40:05.188Z,53.33
2022-12-12T10:41:16.489Z,52.85
2022-12-12T10:42:28.871Z,53.67
2022-12-12T10:43:39.096Z,49.08
2022-12-12T10:45:00.936Z,55.42
2022-12-12T10:46:19.276Z,55.45
2022-12-12T10:47:21.543Z,50.85
2022-12-12T10:48:24.660Z,49.83
2022-12-12T10:49:27.936Z,51.03
2022-12-12T10:50:34.848Z,50.20
2022-12-12T10:51:37.977Z,51.17
2022-12-12T10:52:42.386Z,51.55
2022-12-12T10:53:45.290Z,50.80
2022-12-12T10:54:52.920Z,53.47
2022-12-12T10:55:59.959Z,53.28
2022-12-12T10:57:18.033Z,55.35
2022-12-12T10:58:26.260Z,54.88
2022-12-12T10:59:28.666Z,55.95
2022-12-12T11:00:33.755Z,59.50
2022-12-12T11:03:13.661Z,55.88
2022-12-12T11:04:16.986Z,56.88
2022-12-12T11:05:24.789Z,52.67
2022-12-12T11:06:31.504Z,53.20
2022-12-12T11:07:37.881Z,54.20
2022-12-12T11:08:53.849Z,55.92
2022-12-12T11:10:01.931Z,57.55
2022-12-12T11:11:08.643Z,60.17
2022-12-12T11:12:15.665Z,56.40
2022-12-12T11:13:18.908Z,53.20
2022-12-12T11:14:28.034Z,54.47
2022-12-12T11:15:40.597Z,52.17
2022-12-12T11:16:45.411Z,52.20
2022-12-12T11:17:50.266Z,51.75
2022-12-12T11:19:04.407Z,50.53
2022-12-12T11:20:10.673Z,52.45
2022-12-12T11:21:15.112Z,53.42
2022-12-12T11:22:18.234Z,50.58
2022-12-12T11:23:25.928Z,53.38
2022-12-12T11:24:33.360Z,56.70
2022-12-12T11:25:37.615Z,48.88
2022-12-12T11:26:46.400Z,51.75
2022-12-12T11:27:49.742Z,47.60
2022-12-12T11:28:57.257Z,45.88
2022-12-12T11:30:02.621Z,47.47
2022-12-12T11:31:08.227Z,44.67
2022-12-12T11:32:14.315Z,45.03
2022-12-12T11:33:20.918Z,47.95
2022-12-12T11:34:27.338Z,48.58
2022-12-12T11:35:35.901Z,51.20
2022-12-12T11:36:41.552Z,54.50
2022-12-12T11:37:49.427Z,52.50
2022-12-12T11:38:55.957Z,55.28
2022-12-12T11:39:59.374Z,56.17
2022-12-12T11:41:05.786Z,51.42
2022-12-12T11:42:19.467Z,46.75
2022-12-12T11:43:26.339Z,50.10
2022-12-12T11:44:34.496Z,47.80
2022-12-12T11:45:37.605Z,47.72
2022-12-12T11:46:40.889Z,49.00
2022-12-12T11:47:44.668Z,50.05
2022-12-12T11:48:57.752Z,46.83
2022-12-12T11:50:04.969Z,48.03
2022-12-12T11:51:12.733Z,47.95
2022-12-12T11:52:20.866Z,49.63
2022-12-12T11:53:23.929Z,48.33
2022-12-12T11:54:31.034Z,47.97
2022-12-12T11:55:44.408Z,48.05
2022-12-12T11:56:54.856Z,45.35
2022-12-12T11:58:11.905Z,43.22
2022-12-12T11:59:38.236Z,47.67
2022-12-12T12:00:46.964Z,49.97
2022-12-12T12:02:00.749Z,44.83
2022-12-12T12:03:29.806Z,44.67
2022-12-12T12:04:53.225Z,44.72
2022-12-12T12:06:15.123Z,42.65
2022-12-12T12:07:39.180Z,43.10
2022-12-12T12:09:03.891Z,46.38
2022-12-12T12:10:18.336Z,47.05
2022-12-12T12:11:32.675Z,46.17
2022-12-12T12:12:50.718Z,47.15
2022-12-12T12:14:09.452Z,42.72
2022-12-12T12:15:28.376Z,42.30
2022-12-12T12:16:40.934Z,47.03
2022-12-12T12:18:01.088Z,46.17
2022-12-12T12:19:12.731Z,45.70
2022-12-12T12:20:25.582Z,43.60
2022-12-12T12:21:37.028Z,48.90
2022-12-12T12:22:49.881Z,43.63
2022-12-12T12:24:04.273Z,46.45
2022-12-12T12:25:32.821Z,45.88
2022-12-12T12:26:44.311Z,44.75
2022-12-12T12:27:57.686Z,42.72
2022-12-12T12:29:28.911Z,46.70
2022-12-12T12:30:40.375Z,43.58
2022-12-12T12:31:53.797Z,48.05
2022-12-12T12:33:24.813Z,48.78
2022-12-12T12:35:50.788Z,48.83
2022-12-12T12:37:09.248Z,43.67
2022-12-12T12:38:24.759Z,47.42
2022-12-12T12:39:47.015Z,48.88
2022-12-12T12:41:07.850Z,43.50
2022-12-12T12:42:23.673Z,47.30
2022-12-12T12:43:46.730Z,44.22
2022-12-12T12:44:56.205Z,47.28
2022-12-12T12:46:08.410Z,46.63
2022-12-12T12:47:22.039Z,47.63
2022-12-12T12:48:35.418Z,45.90
2022-12-12T12:49:44.751Z,51.60
2022-12-12T12:50:53.011Z,47.30
2022-12-12T12:52:00.348Z,46.55
2022-12-12T12:53:08.988Z,44.13
2022-12-12T12:54:19.306Z,45.90
2022-12-12T12:55:27.805Z,47.95
2022-12-12T12:56:33.559Z,45.45
2022-12-12T12:57:41.400Z,48.30
2022-12-12T12:58:48.551Z,49.58
2022-12-12T12:59:57.126Z,46.13
2022-12-12T13:01:04.746Z,48.88
2022-12-12T13:02:26.808Z,47.85
2022-12-12T13:03:37.823Z,46.70
2022-12-12T13:04:46.179Z,46.85
2022-12-12T13:05:53.705Z,45.90
2022-12-12T13:07:01.123Z,48.17
2022-12-12T13:08:14.673Z,49.42
2022-12-12T13:09:28.357Z,51.55
2022-12-12T13:10:33.948Z,50.70
2022-12-12T13:11:42.918Z,45.78
2022-12-12T13:12:53.235Z,45.92
2022-12-12T13:14:00.467Z,50.22
2022-12-12T13:15:07.544Z,49.45
2022-12-12T13:16:15.003Z,51.80
2022-12-12T13:17:21.474Z,47.65
2022-12-12T13:18:25.267Z,48.05
2022-12-12T13:19:32.469Z,47.42
2022-12-12T13:20:40.377Z,47.03
2022-12-12T13:21:51.416Z,46.85
2022-12-12T13:23:09.408Z,46.00
2022-12-12T13:24:20.289Z,44.63
2022-12-12T13:25:34.573Z,49.15
2022-12-12T13:26:44.503Z,48.58
2022-12-12T13:27:54.406Z,51.72
2022-12-12T13:29:00.901Z,49.03
2022-12-12T13:30:10.147Z,49.05
2022-12-12T13:31:32.279Z,51.13
2022-12-12T13:32:58.399Z,45.20
2022-12-12T13:34:06.095Z,43.38
2022-12-12T13:35:13.796Z,48.25
2022-12-12T13:36:29.081Z,46.85
2022-12-12T13:37:37.468Z,50.45
2022-12-12T13:38:42.024Z,45.53
2022-12-12T13:39:45.630Z,43.13
2022-12-12T13:40:57.043Z,47.13
2022-12-12T13:42:02.407Z,43.88
2022-12-12T13:43:10.303Z,48.28
2022-12-12T13:44:34.118Z,46.63
2022-12-12T13:45:42.854Z,49.05
2022-12-12T13:46:45.985Z,44.83
2022-12-12T13:48:02.306Z,49.55
2022-12-12T13:49:20.133Z,46.05
2022-12-12T13:50:24.357Z,51.55
2022-12-12T13:51:38.905Z,52.70
2022-12-12T13:52:43.470Z,46.63
2022-12-12T13:53:45.542Z,51.33
2022-12-12T13:54:49.120Z,52.20
2022-12-12T13:56:27.004Z,52.65
2022-12-12T13:57:33.459Z,50.70
2022-12-12T13:58:37.889Z,48.88
2022-12-12T14:00:29.979Z,51.45
2022-12-12T14:01:40.195Z,46.03
2022-12-12T14:02:46.801Z,54.88
2022-12-12T14:03:50.041Z,51.20
2022-12-12T14:05:10.177Z,48.90
2022-12-12T14:06:19.530Z,36.83
2022-12-12T14:07:25.548Z,50.78
2022-12-12T14:08:32.180Z,49.20
2022-12-12T14:09:48.464Z,51.92
2022-12-12T14:11:00.193Z,49.38
2022-12-12T14:12:07.565Z,50.00
2022-12-12T14:13:27.648Z,49.63
2022-12-12T14:14:34.028Z,50.47
2022-12-12T14:15:37.507Z,57.75
2022-12-12T14:16:41.071Z,55.53
2022-12-12T14:17:53.867Z,54.22
2022-12-12T14:19:04.826Z,52.50
2022-12-12T14:20:09.286Z,51.97
2022-12-12T14:21:15.340Z,50.22
2022-12-12T14:22:27.735Z,50.40
2022-12-12T14:23:32.757Z,54.10
2022-12-12T14:25:07.594Z,49.97
2022-12-12T14:26:47.992Z,55.70
2022-12-12T14:28:14.634Z,52.72
2022-12-12T14:29:28.853Z,54.72
2022-12-12T14:30:46.019Z,51.60
2022-12-12T14:31:57.400Z,56.47